Time;durP1;ratioP1;P1;durP2;ratioP2;P2;SDS_P1;SDS_P2;PMS_P1;PMS_P2;Temp;Humidity;BMP_temperature;BMP_pressure;BME280_temperature;BME280_humidity;BME280_pressure;Samples;Min_cycle;Max_cycle;Signal;HPM_P1;HPM_P2
2022/07/16 00:01:26;;;;;;;5.70;2.90;;;15.00;99.90;;;;;;4972540;28;21606;-89
2022/07/16 00:03:58;;;;;;;4.25;2.90;;;15.00;99.90;;;;;;4986526;28;20134;-89
2022/07/16 00:06:26;;;;;;;3.92;3.05;;;15.00;99.90;;;;;;4997690;28;20128;-89
2022/07/16 00:08:52;;;;;;;5.18;2.80;;;15.10;99.90;;;;;;4967927;28;20068;-90
2022/07/16 00:11:19;;;;;;;7.22;3.20;;;15.10;99.90;;;;;;4980452;28;20053;-88
2022/07/16 00:13:46;;;;;;;4.90;3.00;;;15.30;99.90;;;;;;4971106;28;20096;-89
2022/07/16 00:16:12;;;;;;;4.30;2.70;;;15.30;99.90;;;;;;4981113;28;20116;-90
2022/07/16 00:21:32;;;;;;;5.68;3.15;;;15.50;99.90;;;;;;4981188;28;20104;-90
2022/07/16 00:23:58;;;;;;;4.38;2.75;;;15.50;99.90;;;;;;4980024;28;20338;-90
2022/07/16 00:26:24;;;;;;;4.35;3.10;;;15.60;99.90;;;;;;4982930;28;20277;-90
2022/07/16 00:28:50;;;;;;;5.78;3.33;;;15.60;99.90;;;;;;4970557;28;20208;-89
2022/07/16 00:31:16;;;;;;;4.55;3.00;;;15.70;99.90;;;;;;4983586;28;20050;-87
2022/07/16 00:33:41;;;;;;;6.40;3.10;;;15.70;99.90;;;;;;4964748;28;20056;-89
2022/07/16 00:36:07;;;;;;;6.10;3.08;;;15.70;99.90;;;;;;4969114;28;20041;-89
2022/07/16 00:38:33;;;;;;;4.18;2.97;;;15.70;99.90;;;;;;4992764;28;20485;-90
2022/07/16 00:40:59;;;;;;;4.25;3.30;;;15.70;99.90;;;;;;4993037;28;20172;-88
2022/07/16 00:43:25;;;;;;;4.00;2.80;;;15.70;99.90;;;;;;4979012;28;20325;-89
2022/07/16 00:45:51;;;;;;;4.95;3.13;;;15.70;99.90;;;;;;4991311;28;20053;-90
2022/07/16 00:48:16;;;;;;;4.85;2.95;;;15.70;99.90;;;;;;4974594;28;20117;-90
2022/07/16 00:50:43;;;;;;;4.07;3.13;;;15.70;99.90;;;;;;4980285;28;20125;-89
2022/07/16 00:53:10;;;;;;;5.32;2.97;;;15.70;99.90;;;;;;4974571;28;20067;-89
2022/07/16 00:55:36;;;;;;;5.88;3.30;;;15.70;99.90;;;;;;4983531;28;20351;-88
2022/07/16 00:58:02;;;;;;;4.60;3.50;;;15.70;99.90;;;;;;4977637;28;20088;-88
2022/07/16 01:00:29;;;;;;;8.13;3.80;;;15.60;99.90;;;;;;4972737;28;20091;-88
2022/07/16 01:02:55;;;;;;;9.18;3.97;;;15.60;99.90;;;;;;4964233;28;20049;-88
2022/07/16 01:05:23;;;;;;;8.48;3.78;;;15.70;99.90;;;;;;4978004;28;20048;-88
2022/07/16 01:07:49;;;;;;;3.97;3.35;;;15.60;99.90;;;;;;4970561;28;20044;-88
2022/07/16 01:10:18;;;;;;;4.82;3.97;;;15.60;99.90;;;;;;4973384;28;20042;-87
2022/07/16 01:12:45;;;;;;;8.88;3.60;;;15.60;1.00;;;;;;4972237;28;20117;-86
2022/07/16 01:15:11;;;;;;;5.22;3.63;;;15.50;1.00;;;;;;4980344;28;20076;-87
2022/07/16 01:17:37;;;;;;;7.25;3.85;;;15.50;48.10;;;;;;4977383;28;20049;-87
2022/07/16 01:20:05;;;;;;;7.00;3.90;;;15.50;99.90;;;;;;4986352;28;20113;-89
2022/07/16 01:22:31;;;;;;;5.10;3.40;;;15.50;99.90;;;;;;4973315;28;20048;-88
2022/07/16 01:25:00;;;;;;;6.75;3.63;;;15.40;99.90;;;;;;4985677;28;20049;-88
2022/07/16 01:27:26;;;;;;;7.60;3.70;;;15.30;99.90;;;;;;4973309;28;20121;-88
2022/07/16 01:29:51;;;;;;;5.78;3.58;;;15.30;99.90;;;;;;4972857;28;20128;-87
2022/07/16 01:32:17;;;;;;;4.28;3.20;;;15.40;99.90;;;;;;4968036;28;20354;-87
2022/07/16 01:34:43;;;;;;;6.93;3.47;;;15.30;99.90;;;;;;4966496;28;20042;-87
2022/07/16 01:37:09;;;;;;;7.15;3.30;;;15.40;99.90;;;;;;4965618;28;20538;-89
2022/07/16 01:39:37;;;;;;;4.80;3.13;;;15.40;99.90;;;;;;4981135;28;20092;-87
2022/07/16 01:42:05;;;;;;;5.93;3.08;;;15.40;99.90;;;;;;4967628;28;20044;-88
2022/07/16 01:44:34;;;;;;;5.30;2.75;;;15.30;99.90;;;;;;4972398;28;20423;-88
2022/07/16 01:47:01;;;;;;;4.75;2.80;;;15.40;99.90;;;;;;4983933;28;20494;-87
2022/07/16 01:49:33;;;;;;;5.57;3.20;;;15.30;99.90;;;;;;4969717;28;20046;-88
2022/07/16 01:52:05;;;;;;;4.88;3.20;;;15.30;99.90;;;;;;4970095;28;20050;-87
2022/07/16 01:54:31;;;;;;;5.40;2.72;;;15.40;99.90;;;;;;4962974;28;20046;-88
2022/07/16 01:56:56;;;;;;;6.65;3.00;;;15.40;99.90;;;;;;4969879;28;20112;-87
2022/07/16 01:59:23;;;;;;;8.00;2.78;;;15.30;99.90;;;;;;4983383;28;20062;-87
2022/07/16 02:01:49;;;;;;;5.15;3.00;;;15.30;99.90;;;;;;4967141;28;20039;-87
2022/07/16 02:04:14;;;;;;;6.78;2.83;;;15.30;99.90;;;;;;4974795;28;20134;-87
2022/07/16 02:06:40;;;;;;;4.78;2.80;;;15.20;99.90;;;;;;4981321;28;20165;-87
2022/07/16 02:09:06;;;;;;;4.13;2.80;;;15.10;99.90;;;;;;4967718;28;20077;-87
2022/07/16 02:11:31;;;;;;;4.20;2.65;;;15.20;99.90;;;;;;4984960;28;20591;-88
2022/07/16 02:13:57;;;;;;;6.65;2.50;;;15.20;99.90;;;;;;4972831;28;20089;-87
2022/07/16 02:16:22;;;;;;;4.80;2.40;;;15.20;99.90;;;;;;4966154;28;20121;-87
2022/07/16 02:18:48;;;;;;;5.10;2.30;;;15.20;99.90;;;;;;4967240;28;20080;-87
2022/07/16 02:21:14;;;;;;;5.22;2.42;;;15.20;99.90;;;;;;4982324;28;20042;-87
2022/07/16 02:23:40;;;;;;;5.78;2.50;;;15.10;99.90;;;;;;4969684;28;20036;-88
2022/07/16 02:26:05;;;;;;;3.85;2.35;;;15.10;99.90;;;;;;4983026;28;20615;-87
2022/07/16 02:28:31;;;;;;;9.63;2.85;;;15.10;1.00;;;;;;4982300;28;20105;-88
2022/07/16 02:30:57;;;;;;;6.57;2.80;;;15.10;1.00;;;;;;4963851;28;20414;-88
2022/07/16 02:33:23;;;;;;;6.50;2.63;;;15.10;1.00;;;;;;4967651;28;20046;-87
2022/07/16 02:35:48;;;;;;;5.50;2.33;;;15.00;1.00;;;;;;4960199;28;20434;-88
2022/07/16 02:38:15;;;;;;;6.90;2.60;;;14.90;1.00;;;;;;4960372;28;20052;-88
2022/07/16 02:40:42;;;;;;;5.20;2.42;;;15.00;1.00;;;;;;4963690;28;20465;-88
2022/07/16 02:43:09;;;;;;;6.43;2.55;;;15.00;1.00;;;;;;4969309;28;20501;-88
2022/07/16 02:45:36;;;;;;;7.47;2.90;;;15.00;1.00;;;;;;4961137;28;20046;-87
2022/07/16 02:48:03;;;;;;;5.05;2.63;;;15.00;1.00;;;;;;4975900;28;20043;-87
2022/07/16 02:50:29;;;;;;;6.03;2.38;;;15.10;1.00;;;;;;4958159;28;20113;-87
2022/07/16 02:52:55;;;;;;;8.95;2.63;;;15.00;1.00;;;;;;4962571;28;20428;-87
2022/07/16 02:55:24;;;;;;;5.47;2.53;;;15.00;1.00;;;;;;4959333;28;20447;-88
2022/07/16 02:57:50;;;;;;;7.57;2.35;;;14.90;99.90;;;;;;4960103;28;20046;-87
2022/07/16 03:00:17;;;;;;;5.03;2.38;;;14.90;99.90;;;;;;4975393;28;20048;-87
2022/07/16 03:02:43;;;;;;;6.70;2.50;;;14.90;99.90;;;;;;4971002;28;20537;-87
2022/07/16 03:05:10;;;;;;;7.50;2.47;;;14.80;99.90;;;;;;4961805;28;20435;-87
2022/07/16 03:07:36;;;;;;;7.72;2.30;;;14.80;99.90;;;;;;4963492;28;20046;-88
2022/07/16 03:10:02;;;;;;;6.65;2.38;;;14.70;99.90;;;;;;4966880;28;20494;-87
2022/07/16 03:12:28;;;;;;;5.32;2.50;;;14.70;99.90;;;;;;4965501;28;20042;-87
2022/07/16 03:14:54;;;;;;;8.77;2.55;;;14.70;99.90;;;;;;4949859;28;20380;-87
2022/07/16 03:17:19;;;;;;;7.03;2.40;;;14.60;99.90;;;;;;4965200;28;20490;-87
2022/07/16 03:19:48;;;;;;;6.13;2.60;;;14.60;99.90;;;;;;4966826;28;20042;-87
2022/07/16 03:22:14;;;;;;;5.45;2.88;;;14.50;99.90;;;;;;4974565;28;20053;-87
2022/07/16 03:24:40;;;;;;;6.40;2.47;;;14.50;99.90;;;;;;4965738;28;20042;-87
2022/07/16 03:27:05;;;;;;;8.85;2.80;;;14.40;99.90;;;;;;4981304;28;20058;-86
2022/07/16 03:29:31;;;;;;;7.40;2.80;;;14.40;99.90;;;;;;4964130;28;20401;-87
2022/07/16 03:31:57;;;;;;;8.43;2.50;;;14.30;99.90;;;;;;4964538;28;20907;-87
2022/07/16 03:34:23;;;;;;;6.50;2.58;;;14.30;99.90;;;;;;4956416;28;20046;-87
2022/07/16 03:36:48;;;;;;;5.68;2.42;;;14.30;99.90;;;;;;4962447;28;20061;-88
2022/07/16 03:39:14;;;;;;;9.38;2.67;;;14.20;99.90;;;;;;4960061;28;20035;-88
2022/07/16 03:41:40;;;;;;;5.68;2.25;;;14.20;99.90;;;;;;4957991;28;20045;-87
2022/07/16 03:44:08;;;;;;;6.93;2.42;;;14.10;99.90;;;;;;4957717;28;20591;-87
2022/07/16 03:46:35;;;;;;;6.70;2.50;;;14.10;99.90;;;;;;4964375;28;20212;-88
2022/07/16 03:49:02;;;;;;;7.03;2.53;;;14.10;99.90;;;;;;4974503;28;20429;-87
2022/07/16 03:51:28;;;;;;;6.10;2.97;;;14.00;99.90;;;;;;4959426;28;20046;-87
2022/07/16 03:53:53;;;;;;;9.55;2.70;;;14.10;99.90;;;;;;4966130;28;20074;-87
2022/07/16 03:56:20;;;;;;;5.97;2.47;;;14.10;99.90;;;;;;4958052;28;20161;-88
2022/07/16 03:58:48;;;;;;;7.93;2.58;;;14.10;99.90;;;;;;4954896;28;20526;-88
2022/07/16 04:01:17;;;;;;;8.25;2.40;;;14.10;99.90;;;;;;4956039;28;20042;-88
2022/07/16 04:03:43;;;;;;;5.07;2.65;;;14.10;99.90;;;;;;4953066;28;20101;-87
2022/07/16 04:06:09;;;;;;;6.03;2.60;;;14.00;87.00;;;;;;4972982;28;20043;-87
2022/07/16 04:08:35;;;;;;;5.50;2.60;;;14.00;54.80;;;;;;4960563;28;20042;-87
2022/07/16 04:11:01;;;;;;;6.85;2.55;;;13.90;42.90;;;;;;4952497;28;20038;-88
2022/07/16 04:13:27;;;;;;;7.07;2.25;;;13.90;55.60;;;;;;4971132;28;20050;-87
2022/07/16 04:15:53;;;;;;;6.30;2.65;;;13.90;34.70;;;;;;4972904;28;20051;-87
2022/07/16 04:18:20;;;;;;;6.47;2.60;;;13.90;11.30;;;;;;4973921;28;20410;-87
2022/07/16 04:20:46;;;;;;;5.88;2.70;;;13.90;12.80;;;;;;4973701;28;20073;-87
2022/07/16 04:23:12;;;;;;;9.65;2.90;;;14.00;9.60;;;;;;4969269;28;20101;-87
2022/07/16 04:25:38;;;;;;;8.18;2.70;;;13.90;1.00;;;;;;4975134;28;20043;-87
2022/07/16 04:28:04;;;;;;;6.68;2.65;;;13.90;1.00;;;;;;4975954;28;20046;-86
2022/07/16 04:30:30;;;;;;;6.65;2.92;;;14.00;12.90;;;;;;4987044;28;20068;-87
2022/07/16 04:32:56;;;;;;;7.97;2.75;;;14.10;1.00;;;;;;4973721;28;20073;-87
2022/07/16 04:35:24;;;;;;;5.05;2.40;;;14.10;1.00;;;;;;4962575;28;20463;-87
2022/07/16 04:37:53;;;;;;;6.43;2.63;;;14.20;1.00;;;;;;4959980;28;20060;-87
2022/07/16 04:40:19;;;;;;;7.18;2.50;;;14.30;1.00;;;;;;4961211;28;20050;-87
2022/07/16 04:42:45;;;;;;;4.70;2.30;;;14.40;1.00;;;;;;4985586;28;20042;-86
2022/07/16 04:45:12;;;;;;;4.45;2.30;;;14.40;99.90;;;;;;4972504;28;20074;-87
2022/07/16 04:47:39;;;;;;;5.18;2.17;;;14.50;99.90;;;;;;4979108;28;20141;-86
2022/07/16 04:50:06;;;;;;;7.75;2.50;;;14.50;99.90;;;;;;4979466;28;20398;-87
2022/07/16 04:52:31;;;;;;;6.40;2.00;;;14.50;99.90;;;;;;4963940;28;20427;-86
2022/07/16 04:54:58;;;;;;;7.45;1.92;;;14.50;99.90;;;;;;4979733;28;20054;-87
2022/07/16 04:57:24;;;;;;;3.92;2.08;;;14.50;99.90;;;;;;4962161;28;20054;-87
2022/07/16 04:59:51;;;;;;;6.85;2.10;;;14.60;99.90;;;;;;4981718;28;20054;-88
2022/07/16 05:05:04;;;;;;;7.97;2.15;;;14.70;99.90;;;;;;4983989;28;20105;-88
2022/07/16 05:07:30;;;;;;;5.25;2.33;;;14.60;99.90;;;;;;4968899;28;20063;-88
2022/07/16 05:09:58;;;;;;;8.45;2.30;;;14.70;99.90;;;;;;4969959;28;20406;-87
2022/07/16 05:12:24;;;;;;;8.15;2.13;;;14.70;99.90;;;;;;4983862;28;20096;-87
2022/07/16 05:14:50;;;;;;;9.15;2.45;;;14.60;99.90;;;;;;4970239;28;20046;-87
2022/07/16 05:17:16;;;;;;;7.47;2.30;;;14.60;99.90;;;;;;4971072;28;20043;-87
2022/07/16 05:19:41;;;;;;;6.05;1.95;;;14.70;99.90;;;;;;4957017;28;20148;-87
2022/07/16 05:22:07;;;;;;;7.35;1.92;;;14.70;99.90;;;;;;4979015;28;20064;-86
2022/07/16 05:24:34;;;;;;;6.45;2.00;;;14.80;99.90;;;;;;4969309;28;20113;-87
2022/07/16 05:27:00;;;;;;;5.95;2.17;;;14.90;99.90;;;;;;4952405;28;20046;-88
2022/07/16 05:29:25;;;;;;;6.32;2.03;;;15.00;99.90;;;;;;4967540;28;20049;-88
2022/07/16 05:31:51;;;;;;;6.38;2.30;;;15.00;99.90;;;;;;4985743;28;20503;-87
2022/07/16 05:34:17;;;;;;;6.20;1.73;;;15.00;99.90;;;;;;4961815;28;20125;-86
2022/07/16 05:36:43;;;;;;;6.68;1.63;;;14.90;1.00;;;;;;4966938;28;20043;-87
2022/07/16 05:39:09;;;;;;;8.60;2.20;;;14.80;1.00;;;;;;4967207;28;20414;-87
2022/07/16 05:41:34;;;;;;;7.38;2.33;;;14.80;1.00;;;;;;4978859;28;20053;-87
2022/07/16 05:44:01;;;;;;;6.32;2.45;;;15.00;1.00;;;;;;4968907;28;20411;-86
2022/07/16 05:46:27;;;;;;;5.93;1.38;;;15.10;99.90;;;;;;4960441;28;20055;-87
2022/07/16 05:48:53;;;;;;;4.32;1.60;;;15.20;99.90;;;;;;4974197;28;20503;-87
2022/07/16 05:51:19;;;;;;;5.07;1.65;;;15.30;99.90;;;;;;4975146;28;20053;-87
2022/07/16 05:53:44;;;;;;;8.25;1.60;;;15.20;99.90;;;;;;4969148;28;20034;-88
2022/07/16 05:56:10;;;;;;;8.10;1.58;;;15.40;99.90;;;;;;4978731;28;20034;-87
2022/07/16 05:58:36;;;;;;;5.85;1.35;;;15.40;99.90;;;;;;4977587;28;20875;-87
2022/07/16 06:01:02;;;;;;;3.78;1.63;;;15.40;99.90;;;;;;4979158;28;20054;-87
2022/07/16 06:03:27;;;;;;;7.03;1.65;;;15.60;99.90;;;;;;4961371;28;20042;-87
2022/07/16 06:05:53;;;;;;;9.77;1.73;;;15.60;99.90;;;;;;4978125;28;20039;-87
2022/07/16 06:08:19;;;;;;;5.75;1.60;;;15.60;99.90;;;;;;4958247;28;20462;-86
2022/07/16 06:10:44;;;;;;;7.53;1.70;;;15.60;99.90;;;;;;4964338;28;20245;-87
2022/07/16 06:13:10;;;;;;;7.22;1.80;;;15.60;99.90;;;;;;4965555;28;20070;-86
2022/07/16 06:15:36;;;;;;;4.38;1.42;;;15.70;99.90;;;;;;4958577;28;20124;-87
2022/07/16 06:18:03;;;;;;;5.35;1.80;;;15.70;99.90;;;;;;4966138;28;20471;-87
2022/07/16 06:20:29;;;;;;;4.82;1.33;;;15.80;99.90;;;;;;4951624;28;20054;-86
2022/07/16 06:22:56;;;;;;;6.53;1.50;;;15.70;99.90;;;;;;4966220;28;20316;-86
2022/07/16 06:25:23;;;;;;;8.63;1.67;;;15.80;99.90;;;;;;4950591;28;20046;-88
2022/07/16 06:27:49;;;;;;;6.90;1.67;;;15.90;63.90;;;;;;4965618;28;20432;-87
2022/07/16 06:30:15;;;;;;;4.72;1.30;;;15.90;59.30;;;;;;4977663;28;20138;-87
2022/07/16 06:32:45;;;;;;;6.75;1.73;;;15.90;1.00;;;;;;4965044;28;20047;-87
2022/07/16 06:35:12;;;;;;;5.13;1.30;;;15.90;1.00;;;;;;4967904;28;20039;-88
2022/07/16 06:37:39;;;;;;;5.10;1.30;;;15.90;1.00;;;;;;4966203;28;20042;-88
2022/07/16 06:40:05;;;;;;;6.75;1.25;;;15.90;1.00;;;;;;4981651;28;20034;-87
2022/07/16 06:42:32;;;;;;;6.18;1.10;;;16.00;1.00;;;;;;4965650;28;20038;-88
2022/07/16 06:44:58;;;;;;;5.30;1.20;;;16.00;1.00;;;;;;4960598;28;20196;-86
2022/07/16 06:47:24;;;;;;;8.05;1.30;;;16.10;1.00;;;;;;4963698;28;20491;-89
2022/07/16 06:49:50;;;;;;;4.75;1.20;;;16.30;1.00;;;;;;4976408;28;20042;-88
2022/07/16 06:52:16;;;;;;;3.63;1.00;;;16.30;1.00;;;;;;4956987;28;20138;-87
2022/07/16 06:54:42;;;;;;;7.22;1.30;;;16.30;1.00;;;;;;4974227;28;20080;-86
2022/07/16 06:57:07;;;;;;;4.35;1.05;;;16.30;1.00;;;;;;4961514;28;20167;-88
2022/07/16 06:59:33;;;;;;;3.60;1.00;;;16.40;1.00;;;;;;4961368;28;20499;-87
2022/07/16 07:01:59;;;;;;;2.75;1.13;;;16.50;1.00;;;;;;4966800;28;20042;-87
2022/07/16 07:04:24;;;;;;;9.77;1.92;;;16.70;1.00;;;;;;4960164;28;20038;-88
2022/07/16 07:06:53;;;;;;;6.57;1.30;;;16.60;1.00;;;;;;4957189;28;20500;-88
2022/07/16 07:09:19;;;;;;;6.25;1.23;;;16.50;1.00;;;;;;4957226;28;20140;-87
2022/07/16 07:11:45;;;;;;;3.00;1.10;;;16.70;1.00;;;;;;4960379;28;20479;-88
2022/07/16 07:14:11;;;;;;;4.10;1.00;;;16.80;1.00;;;;;;4964837;28;20045;-88
2022/07/16 07:16:37;;;;;;;2.15;0.80;;;16.90;99.90;;;;;;4966376;28;20739;-87
2022/07/16 07:19:03;;;;;;;7.60;1.40;;;16.80;99.90;;;;;;4964891;28;20046;-88
2022/07/16 07:21:29;;;;;;;4.78;1.00;;;17.00;99.90;;;;;;4974953;28;20041;-87
2022/07/16 07:23:58;;;;;;;6.15;1.02;;;17.10;99.90;;;;;;4970762;28;20027;-87
2022/07/16 07:26:24;;;;;;;4.15;1.10;;;17.00;99.90;;;;;;4959672;28;20047;-88
2022/07/16 07:28:50;;;;;;;3.97;0.88;;;16.40;99.90;;;;;;4967165;28;20046;-87
2022/07/16 07:31:19;;;;;;;6.57;1.13;;;16.40;99.90;;;;;;4967648;28;20077;-88
2022/07/16 07:33:44;;;;;;;5.53;1.10;;;16.40;99.90;;;;;;4956922;28;20050;-87
2022/07/16 07:36:10;;;;;;;4.70;1.05;;;16.50;99.90;;;;;;4965684;28;20073;-87
2022/07/16 07:38:36;;;;;;;3.38;0.90;;;16.70;99.90;;;;;;4967437;28;20125;-88
2022/07/16 07:41:03;;;;;;;3.85;0.90;;;17.10;99.90;;;;;;4965405;28;20046;-86
2022/07/16 07:43:28;;;;;;;3.28;1.08;;;17.40;99.90;;;;;;4980494;28;20045;-87
2022/07/16 07:45:54;;;;;;;7.78;0.93;;;17.60;99.90;;;;;;4963312;28;20137;-87
2022/07/16 07:48:20;;;;;;;6.32;1.17;;;17.60;99.90;;;;;;4954882;28;20133;-87
2022/07/16 07:50:45;;;;;;;2.92;0.88;;;17.70;99.90;;;;;;4967060;28;20074;-88
2022/07/16 07:53:11;;;;;;;4.30;1.20;;;18.20;99.90;;;;;;4960607;28;20042;-88
2022/07/16 07:55:41;;;;;;;5.55;1.15;;;18.00;99.90;;;;;;4966534;28;20050;-87
2022/07/16 07:58:07;;;;;;;3.70;0.95;;;17.50;99.90;;;;;;4965013;28;20416;-87
2022/07/16 08:00:33;;;;;;;4.32;0.90;;;17.00;99.90;;;;;;4956601;28;20053;-87
2022/07/16 08:02:59;;;;;;;3.38;0.85;;;17.00;99.90;;;;;;4966945;28;20384;-87
2022/07/16 08:05:24;;;;;;;7.13;1.08;;;16.80;99.90;;;;;;4955704;28;20034;-87
2022/07/16 08:07:50;;;;;;;3.78;0.90;;;17.10;99.90;;;;;;4974821;28;20534;-87
2022/07/16 08:10:19;;;;;;;6.20;1.15;;;17.70;99.90;;;;;;4966924;28;20558;-86
2022/07/16 08:12:45;;;;;;;3.15;0.88;;;17.90;99.90;;;;;;4958940;28;20057;-88
2022/07/16 08:15:11;;;;;;;5.20;1.20;;;17.90;99.90;;;;;;4968671;28;20038;-88
2022/07/16 08:17:37;;;;;;;3.67;0.85;;;18.00;99.90;;;;;;4958562;28;20073;-86
2022/07/16 08:20:04;;;;;;;5.28;1.13;;;18.10;99.90;;;;;;4978148;28;20115;-87
2022/07/16 08:22:30;;;;;;;4.28;1.10;;;17.70;99.90;;;;;;4962012;28;20050;-87
2022/07/16 08:27:40;;;;;;;5.25;1.35;;;17.40;99.90;;;;;;4974767;28;20153;-87
2022/07/16 08:30:07;;;;;;;4.82;1.10;;;17.50;99.90;;;;;;4966168;28;20111;-87
2022/07/16 08:32:32;;;;;;;7.00;1.48;;;17.50;99.90;;;;;;4970986;28;20119;-88
2022/07/16 08:35:01;;;;;;;7.63;1.20;;;17.30;99.90;;;;;;4954129;28;20072;-88
2022/07/16 08:37:32;;;;;;;5.93;1.60;;;17.40;99.90;;;;;;4963840;28;20047;-87
2022/07/16 08:39:58;;;;;;;5.28;1.83;;;18.20;99.90;;;;;;4978666;28;20096;-87
2022/07/16 08:42:24;;;;;;;4.05;1.08;;;18.40;99.90;;;;;;4959426;28;20039;-87
2022/07/16 08:44:50;;;;;;;6.43;1.05;;;18.60;99.90;;;;;;4955358;28;20033;-86
2022/07/16 08:47:17;;;;;;;6.63;1.58;;;18.20;99.90;;;;;;4981389;28;20466;-87
2022/07/16 08:49:46;;;;;;;5.50;1.15;;;18.00;99.90;;;;;;4975117;28;20482;-86
2022/07/16 08:52:13;;;;;;;2.38;0.90;;;17.60;99.90;;;;;;4970071;28;20057;-87
2022/07/16 08:54:39;;;;;;;5.28;1.38;;;17.50;99.90;;;;;;4967375;28;20099;-87
2022/07/16 08:57:06;;;;;;;6.78;1.35;;;17.30;99.90;;;;;;4977114;28;20458;-88
2022/07/16 08:59:32;;;;;;;8.70;1.67;;;17.10;99.90;;;;;;4959919;28;20043;-88
2022/07/16 09:01:58;;;;;;;5.65;1.13;;;17.10;99.90;;;;;;4979147;28;20185;-88
2022/07/16 09:04:23;;;;;;;6.65;1.38;;;16.90;99.90;;;;;;4977373;28;20577;-88
2022/07/16 09:06:52;;;;;;;7.22;1.50;;;17.60;99.90;;;;;;4962028;28;20057;-88
2022/07/16 09:09:18;;;;;;;2.80;1.10;;;17.60;99.90;;;;;;4959510;28;20201;-87
2022/07/16 09:11:46;;;;;;;6.90;1.75;;;18.10;99.90;;;;;;4958618;28;20467;-87
2022/07/16 09:14:14;;;;;;;3.60;1.33;;;18.50;99.90;;;;;;4967703;28;20047;-89
2022/07/16 09:16:44;;;;;;;5.90;1.30;;;18.20;99.90;;;;;;4976809;28;20378;-87
2022/07/16 09:19:14;;;;;;;3.35;1.23;;;18.00;99.90;;;;;;4970023;28;20042;-87
2022/07/16 09:22:05;;;;;;;4.55;1.05;;;18.40;99.90;;;;;;4969347;28;20043;-86
2022/07/16 09:24:31;;;;;;;4.18;1.33;;;18.50;99.90;;;;;;4962868;28;20042;-88
2022/07/16 09:27:06;;;;;;;8.32;1.30;;;19.00;99.90;;;;;;4973896;28;20114;-86
2022/07/16 09:29:59;;;;;;;3.15;1.10;;;18.90;99.90;;;;;;4966820;28;20039;-87
2022/07/16 09:32:34;;;;;;;3.22;1.02;;;18.80;99.90;;;;;;4954766;28;20080;-87
2022/07/16 09:35:11;;;;;;;2.60;1.00;;;19.00;99.90;;;;;;4978197;28;20073;-87
2022/07/16 09:37:53;;;;;;;4.07;1.00;;;18.10;99.90;;;;;;4984045;28;20043;-88
2022/07/16 09:40:32;;;;;;;6.35;1.02;;;18.40;99.90;;;;;;4965645;28;20042;-87
2022/07/16 09:42:59;;;;;;;3.42;1.20;;;18.60;99.90;;;;;;4959731;28;20039;-86
2022/07/16 09:45:25;;;;;;;4.60;1.27;;;18.70;99.90;;;;;;4954166;28;20088;-88
2022/07/16 09:47:51;;;;;;;9.93;2.28;;;19.00;99.90;;;;;;4962205;28;20106;-87
2022/07/16 09:50:17;;;;;;;4.57;1.10;;;18.60;99.90;;;;;;4982235;28;20047;-88
2022/07/16 09:52:42;;;;;;;4.50;1.10;;;18.50;99.90;;;;;;4962239;28;20077;-88
2022/07/16 09:55:09;;;;;;;5.35;1.48;;;19.00;99.90;;;;;;4984011;28;20047;-86
2022/07/16 09:57:36;;;;;;;3.83;1.10;;;18.80;99.90;;;;;;4965932;28;20062;-88
2022/07/16 10:00:05;;;;;;;7.07;1.15;;;18.20;99.90;;;;;;4966468;28;20078;-87
2022/07/16 10:02:31;;;;;;;5.20;1.20;;;18.10;99.90;;;;;;4968413;28;20038;-87
2022/07/16 10:04:57;;;;;;;4.28;1.30;;;19.20;99.90;;;;;;4967259;28;20511;-87
2022/07/16 10:07:23;;;;;;;6.63;1.23;;;19.10;99.90;;;;;;4956921;28;20057;-88
2022/07/16 10:09:49;;;;;;;5.55;1.08;;;19.90;99.90;;;;;;4977704;28;20893;-87
2022/07/16 10:12:17;;;;;;;4.00;1.00;;;19.90;99.90;;;;;;4964415;28;20047;-87
2022/07/16 10:14:45;;;;;;;4.68;1.10;;;19.50;99.90;;;;;;4970669;28;20069;-88
2022/07/16 10:17:21;;;;;;;4.32;1.13;;;18.70;99.90;;;;;;4960693;28;20269;-87
2022/07/16 10:20:23;;;;;;;4.55;1.00;;;18.50;99.90;;;;;;4964396;28;20051;-87
2022/07/16 10:22:52;;;;;;;2.88;0.90;;;18.70;99.90;;;;;;4926991;29;20046;-85
2022/07/16 10:25:23;;;;;;;7.28;1.30;;;19.30;99.90;;;;;;4966396;28;20636;-87
2022/07/16 10:27:50;;;;;;;5.93;0.90;;;19.50;99.90;;;;;;4955833;28;20085;-88
2022/07/16 10:30:22;;;;;;;5.13;1.00;;;19.60;99.90;;;;;;4965919;28;20092;-86
2022/07/16 10:33:00;;;;;;;3.45;1.02;;;19.70;99.90;;;;;;4987521;28;20045;-86
2022/07/16 10:35:30;;;;;;;3.50;1.13;;;19.50;99.90;;;;;;4957299;28;20699;-87
2022/07/16 10:38:09;;;;;;;3.88;1.15;;;19.80;99.90;;;;;;4972144;28;20043;-87
2022/07/16 10:40:37;;;;;;;4.30;1.08;;;19.90;99.90;;;;;;4969309;28;20039;-87
2022/07/16 10:43:22;;;;;;;4.68;0.90;;;19.80;99.90;;;;;;4968165;28;20042;-87
2022/07/16 10:45:57;;;;;;;2.60;0.90;;;19.10;99.90;;;;;;4965538;28;20061;-87
2022/07/16 10:48:30;;;;;;;5.63;1.13;;;19.30;99.90;;;;;;4955361;28;20047;-87
2022/07/16 10:51:14;;;;;;;4.80;0.93;;;19.80;99.90;;;;;;4971139;28;20082;-87
2022/07/16 10:53:58;;;;;;;4.18;1.40;;;19.80;99.90;;;;;;4976811;28;20073;-87
2022/07/16 10:56:31;;;;;;;6.75;1.33;;;20.50;99.90;;;;;;4977525;28;20046;-87
2022/07/16 10:58:57;;;;;;;3.53;1.20;;;20.30;99.90;;;;;;4954810;28;20055;-87
2022/07/16 11:01:23;;;;;;;3.10;1.15;;;19.60;99.90;;;;;;4973882;28;20046;-87
2022/07/16 11:03:52;;;;;;;3.00;0.98;;;19.50;99.90;;;;;;4967527;28;20503;-87
2022/07/16 11:06:22;;;;;;;4.38;1.23;;;19.80;99.90;;;;;;4967844;28;20126;-87
2022/07/16 11:08:58;;;;;;;4.45;0.98;;;19.10;99.90;;;;;;4975417;28;20051;-86
2022/07/16 11:11:33;;;;;;;4.95;1.00;;;19.60;99.90;;;;;;4963325;28;20066;-87
2022/07/16 11:14:01;;;;;;;4.75;1.00;;;20.10;99.90;;;;;;4966451;28;20050;-88
2022/07/16 11:16:27;;;;;;;3.33;1.25;;;20.10;99.90;;;;;;4966190;28;20042;-86
2022/07/16 11:18:53;;;;;;;2.72;0.90;;;19.00;99.90;;;;;;4976227;28;20506;-87
2022/07/16 11:21:18;;;;;;;5.40;1.40;;;19.20;99.90;;;;;;4961895;28;20053;-88
2022/07/16 11:23:56;;;;;;;6.00;1.70;;;19.70;99.90;;;;;;4971387;28;20135;-88
2022/07/16 11:26:22;;;;;;;2.22;0.70;;;20.10;99.90;;;;;;4965335;28;20519;-87
2022/07/16 11:29:00;;;;;;;4.95;1.30;;;20.70;99.90;;;;;;4971367;28;20495;-87
2022/07/16 11:31:32;;;;;;;6.13;1.02;;;20.80;99.90;;;;;;4981856;28;20327;-86
2022/07/16 11:34:03;;;;;;;5.03;1.10;;;20.90;99.90;;;;;;4961228;28;20398;-87
2022/07/16 11:36:34;;;;;;;3.83;1.05;;;20.10;99.90;;;;;;4967030;28;20061;-88
2022/07/16 11:39:08;;;;;;;4.78;1.20;;;20.00;99.90;;;;;;4952849;28;20385;-88
2022/07/16 11:41:37;;;;;;;6.38;1.10;;;19.20;99.90;;;;;;4969217;28;20471;-87
2022/07/16 11:44:30;;;;;;;5.10;1.10;;;20.00;99.90;;;;;;4973004;28;20035;-87
2022/07/16 11:47:00;;;;;;;7.10;1.25;;;20.30;99.90;;;;;;4957844;28;20505;-87
2022/07/16 11:49:30;;;;;;;5.95;1.45;;;20.20;99.90;;;;;;4965662;28;20042;-88
2022/07/16 11:52:01;;;;;;;6.13;1.40;;;19.60;99.90;;;;;;4979487;28;20517;-87
2022/07/16 11:54:28;;;;;;;6.78;1.30;;;19.40;99.90;;;;;;4963756;28;20046;-87
2022/07/16 11:56:57;;;;;;;8.43;1.52;;;19.90;99.90;;;;;;4952372;28;20059;-86
2022/07/16 11:59:28;;;;;;;5.85;1.50;;;20.70;99.90;;;;;;4953911;28;20133;-86
2022/07/16 12:02:03;;;;;;;4.63;1.15;;;19.80;99.90;;;;;;4974153;28;20138;-87
2022/07/16 12:04:39;;;;;;;4.80;1.25;;;19.50;99.90;;;;;;4950228;28;20129;-88
2022/07/16 12:07:11;;;;;;;4.60;1.40;;;20.10;99.90;;;;;;4980595;28;20038;-87
2022/07/16 12:09:45;;;;;;;3.38;1.25;;;20.20;99.90;;;;;;4959418;28;20045;-89
2022/07/16 12:12:17;;;;;;;5.38;1.45;;;20.70;99.90;;;;;;4960888;28;20370;-88
2022/07/16 12:14:49;;;;;;;4.15;1.20;;;19.30;99.90;;;;;;4982567;28;20042;-87
2022/07/16 12:17:20;;;;;;;5.28;1.30;;;19.20;99.90;;;;;;4959648;28;20042;-87
2022/07/16 12:20:13;;;;;;;6.07;1.45;;;19.10;99.90;;;;;;4964581;28;20190;-88
2022/07/16 12:23:01;;;;;;;8.18;1.83;;;19.40;99.90;;;;;;4982145;28;20129;-87
2022/07/16 12:25:30;;;;;;;5.10;1.55;;;20.00;99.90;;;;;;4970505;28;20608;-87
2022/07/16 12:28:05;;;;;;;4.80;1.35;;;20.60;99.90;;;;;;4959456;28;20254;-88
2022/07/16 12:30:42;;;;;;;6.75;1.42;;;20.90;99.90;;;;;;4966021;28;20043;-88
2022/07/16 12:33:15;;;;;;;4.35;1.05;;;19.80;99.90;;;;;;4956478;28;20050;-88
2022/07/16 12:36:08;;;;;;;9.25;1.67;;;19.30;99.90;;;;;;4979093;28;20043;-88
2022/07/16 12:38:58;;;;;;;5.00;1.55;;;19.20;99.90;;;;;;4979716;28;20459;-87
2022/07/16 12:41:37;;;;;;;6.07;1.30;;;19.50;99.90;;;;;;4972273;28;20494;-88
2022/07/16 12:44:09;;;;;;;2.45;1.20;;;20.30;99.90;;;;;;4968159;28;20050;-88
2022/07/16 12:46:47;;;;;;;5.45;1.30;;;22.00;99.90;;;;;;4970469;28;20050;-88
2022/07/16 12:49:20;;;;;;;6.85;2.08;;;20.40;99.90;;;;;;4968443;28;20042;-88
2022/07/16 12:51:59;;;;;;;6.15;1.33;;;19.30;99.90;;;;;;4968854;28;20053;-88
2022/07/16 12:54:26;;;;;;;5.30;1.35;;;19.10;99.90;;;;;;4969564;28;20101;-88
2022/07/16 12:59:37;;;;;;;5.15;1.70;;;21.00;99.90;;;;;;4974897;28;20458;-87
2022/07/16 13:02:05;;;;;;;5.30;1.63;;;20.20;99.90;;;;;;4960897;28;20038;-87
2022/07/16 13:04:31;;;;;;;6.05;1.30;;;19.50;99.90;;;;;;4978565;28;20046;-88